createdAt,value
2018-06-29T00:00:43.485Z,67.12
2018-06-29T00:01:43.423Z,67.74
2018-06-29T00:02:43.344Z,68.09
2018-06-29T00:03:43.455Z,68.28
2018-06-29T00:04:43.347Z,68.69
2018-06-29T00:05:43.519Z,69.21
2018-06-29T00:06:43.417Z,69.21
2018-06-29T00:07:43.439Z,68.91
2018-06-29T00:08:43.564Z,69.14
2018-06-29T00:09:43.651Z,69.32
2018-06-29T00:10:43.372Z,68.84
2018-06-29T00:11:43.815Z,69.05
2018-06-29T00:12:43.383Z,68.87
2018-06-29T00:13:43.402Z,68.35
2018-06-29T00:14:43.481Z,68.01
2018-06-29T00:15:43.388Z,68.72
2018-06-29T00:16:43.418Z,67.92
2018-06-29T00:17:43.399Z,68.73
2018-06-29T00:18:43.418Z,68.21
2018-06-29T00:19:43.612Z,68.82
2018-06-29T00:20:43.528Z,68.68
2018-06-29T00:21:43.428Z,68.45
2018-06-29T00:22:43.390Z,68.59
2018-06-29T00:23:43.439Z,68.62
2018-06-29T00:24:43.453Z,68.52
2018-06-29T00:25:43.388Z,68.65
2018-06-29T00:26:43.565Z,69.28
2018-06-29T00:27:43.459Z,69.45
2018-06-29T00:28:43.435Z,69.47
2018-06-29T00:29:44.618Z,69.45
2018-06-29T00:30:43.400Z,69.77
2018-06-29T00:31:43.420Z,70.16
2018-06-29T00:32:43.507Z,70.26
2018-06-29T00:33:43.496Z,70.12
2018-06-29T00:34:43.404Z,70.65
2018-06-29T00:35:43.629Z,70.85
2018-06-29T00:36:43.570Z,70.29
2018-06-29T00:37:43.380Z,70.58
2018-06-29T00:38:43.542Z,70.54
2018-06-29T00:39:43.418Z,70.76
2018-06-29T00:40:43.396Z,70.85
2018-06-29T00:41:43.568Z,70.74
2018-06-29T00:42:43.423Z,70.48
2018-06-29T00:43:43.397Z,70.32
2018-06-29T00:44:44.506Z,70.42
2018-06-29T00:45:43.531Z,70.72
2018-06-29T00:46:43.438Z,70.19
2018-06-29T00:47:43.496Z,70.33
2018-06-29T00:48:43.450Z,70.23
2018-06-29T00:49:43.631Z,70.08
2018-06-29T00:50:43.521Z,69.95
2018-06-29T00:51:43.425Z,69.71
2018-06-29T00:52:43.400Z,69.88
2018-06-29T00:53:43.544Z,69.52
2018-06-29T00:54:43.465Z,69.19
2018-06-29T00:55:43.398Z,68.53
2018-06-29T00:56:44.597Z,68.61
2018-06-29T00:57:43.435Z,68.83
2018-06-29T00:58:43.423Z,69.22
2018-06-29T00:59:43.485Z,69.67
2018-06-29T01:00:43.476Z,68.84
2018-06-29T01:01:43.417Z,69.24
2018-06-29T01:02:43.465Z,69.4
2018-06-29T01:03:43.440Z,69.17
2018-06-29T01:04:43.533Z,69.29
2018-06-29T01:05:43.738Z,69.13
2018-06-29T01:06:43.421Z,69.34
2018-06-29T01:07:43.463Z,69.06
2018-06-29T01:08:43.551Z,69.07
2018-06-29T01:09:43.447Z,69.57
2018-06-29T01:10:43.405Z,69.51
2018-06-29T01:11:43.448Z,69.33
2018-06-29T01:12:43.677Z,69.84
2018-06-29T01:13:43.428Z,70.2
2018-06-29T01:14:43.449Z,70.15
2018-06-29T01:15:43.580Z,69.72
2018-06-29T01:16:43.415Z,69.65
2018-06-29T01:17:43.442Z,69.49
2018-06-29T01:18:43.589Z,69.3
2018-06-29T01:19:43.429Z,69.44
2018-06-29T01:20:43.437Z,69.18
2018-06-29T01:21:43.436Z,69.54
2018-06-29T01:22:43.443Z,68.93
2018-06-29T01:23:43.438Z,68.94
2018-06-29T01:24:43.412Z,69.62
2018-06-29T01:25:43.496Z,68.57
2018-06-29T01:26:43.428Z,69.19
2018-06-29T01:27:43.408Z,68.54
2018-06-29T01:28:43.497Z,68.59
2018-06-29T01:29:43.436Z,69.49
2018-06-29T01:30:43.427Z,70.1
2018-06-29T01:31:43.461Z,69.87
2018-06-29T01:32:43.458Z,69.5
2018-06-29T01:33:43.448Z,68.75
2018-06-29T01:34:43.440Z,69.52
2018-06-29T01:35:43.456Z,69.57
2018-06-29T01:36:43.443Z,69.47
2018-06-29T01:37:43.453Z,69.37
2018-06-29T01:38:43.466Z,69.62
2018-06-29T01:39:43.482Z,70.26
2018-06-29T01:40:43.467Z,70.86
2018-06-29T01:41:43.476Z,70.84
2018-06-29T01:42:43.477Z,70.69
2018-06-29T01:43:43.510Z,70.63
2018-06-29T01:44:43.509Z,70.37
2018-06-29T01:45:43.585Z,70.24
2018-06-29T01:46:43.719Z,70.06
2018-06-29T01:47:43.527Z,69.93
2018-06-29T01:48:43.536Z,70.23
2018-06-29T01:49:43.561Z,70.22
2018-06-29T01:50:43.846Z,70.49
2018-06-29T01:51:43.588Z,71.04
2018-06-29T01:52:43.557Z,71.37
2018-06-29T01:53:43.508Z,71.38
2018-06-29T01:54:43.500Z,71.16
2018-06-29T01:55:43.522Z,71.21
2018-06-29T01:56:43.515Z,70.97
2018-06-29T01:57:43.900Z,71.24
2018-06-29T01:58:43.579Z,71.07
2018-06-29T01:59:43.531Z,70.78
2018-06-29T02:00:43.500Z,70.87
2018-06-29T02:01:43.546Z,70.98
2018-06-29T02:02:43.512Z,70.77
2018-06-29T02:03:43.521Z,71.12
2018-06-29T02:04:43.517Z,70.97
2018-06-29T02:05:43.523Z,71.26
2018-06-29T02:06:43.538Z,70.97
2018-06-29T02:07:43.491Z,70.99
2018-06-29T02:08:43.506Z,70.59
2018-06-29T02:09:43.578Z,70.45
2018-06-29T02:10:43.564Z,69.97
2018-06-29T02:11:43.592Z,70.46
2018-06-29T02:12:43.513Z,70.25
2018-06-29T02:13:43.540Z,69.83
2018-06-29T02:14:43.536Z,69.5
2018-06-29T02:15:43.525Z,69.2
2018-06-29T02:16:43.563Z,69.04
2018-06-29T02:17:43.559Z,69.29
2018-06-29T02:18:43.611Z,69.28
2018-06-29T02:19:43.469Z,69.53
2018-06-29T02:20:43.644Z,69.38
2018-06-29T02:21:43.479Z,69.1
2018-06-29T02:22:43.590Z,69.7
2018-06-29T02:23:43.476Z,69.15
2018-06-29T02:24:43.590Z,69.45
2018-06-29T02:25:43.669Z,69.04
2018-06-29T02:26:43.476Z,69.4
2018-06-29T02:27:43.661Z,69.22
2018-06-29T02:28:43.510Z,69.32
2018-06-29T02:29:43.492Z,69.21
2018-06-29T02:30:43.515Z,69.16
2018-06-29T02:31:43.525Z,68.8
2018-06-29T02:32:43.477Z,68.45
2018-06-29T02:33:43.450Z,68.2
2018-06-29T02:34:43.490Z,68.14
2018-06-29T02:35:43.508Z,68.02
2018-06-29T02:36:43.462Z,68.02
2018-06-29T02:37:43.559Z,68.8
2018-06-29T02:38:43.548Z,68.68
2018-06-29T02:39:43.525Z,68.69
2018-06-29T02:40:43.478Z,68.48
2018-06-29T02:41:43.493Z,68.14
2018-06-29T02:42:43.493Z,68.03
2018-06-29T02:43:43.531Z,68.44
2018-06-29T02:44:43.516Z,68.9
2018-06-29T02:45:43.494Z,68.87
2018-06-29T02:46:43.484Z,68.87
2018-06-29T02:47:43.509Z,68.82
2018-06-29T02:48:43.500Z,69.03
2018-06-29T02:49:43.733Z,69.11
2018-06-29T02:50:43.531Z,69.34
2018-06-29T02:51:43.737Z,69
2018-06-29T02:52:43.523Z,68.74
2018-06-29T02:53:43.557Z,68.31
2018-06-29T02:54:43.562Z,68.05
2018-06-29T02:55:43.504Z,68.21
2018-06-29T02:56:43.520Z,68.09
2018-06-29T02:57:43.504Z,68
2018-06-29T02:58:43.528Z,67.98
2018-06-29T02:59:43.513Z,67.9
2018-06-29T03:00:43.576Z,67.64
2018-06-29T03:01:43.523Z,67.66
2018-06-29T03:02:43.535Z,67.7
2018-06-29T03:03:43.519Z,67.8
2018-06-29T03:04:43.540Z,67.62
2018-06-29T03:05:43.499Z,67.6
2018-06-29T03:06:43.474Z,69.16
2018-06-29T03:07:43.602Z,68.51
2018-06-29T03:08:43.486Z,69.01
2018-06-29T03:09:43.896Z,69.29
2018-06-29T03:10:43.491Z,69.74
2018-06-29T03:11:43.674Z,68.95
2018-06-29T03:12:43.507Z,69.01
2018-06-29T03:13:43.500Z,69.84
2018-06-29T03:14:43.523Z,69.76
2018-06-29T03:15:43.550Z,69.75
2018-06-29T03:16:43.547Z,69.98
2018-06-29T03:17:43.904Z,69.87
2018-06-29T03:18:43.531Z,69.64
2018-06-29T03:19:43.503Z,70.53
2018-06-29T03:20:43.510Z,70.24
2018-06-29T03:21:43.564Z,70.41
2018-06-29T03:22:43.503Z,70.89
2018-06-29T03:23:43.572Z,71.4
2018-06-29T03:24:43.498Z,72.21
2018-06-29T03:25:43.495Z,71.84
2018-06-29T03:26:43.806Z,71.8
2018-06-29T03:27:43.519Z,72.91
2018-06-29T03:28:43.561Z,72.05
2018-06-29T03:29:43.559Z,71.14
2018-06-29T03:30:43.551Z,72.21
2018-06-29T03:31:43.557Z,71.29
2018-06-29T03:32:43.530Z,71.56
2018-06-29T03:33:43.599Z,71.07
2018-06-29T03:34:43.569Z,71.12
2018-06-29T03:35:43.552Z,71.72
2018-06-29T03:36:43.618Z,72.22
2018-06-29T03:37:43.508Z,72.13
2018-06-29T03:38:43.534Z,71.81
2018-06-29T03:39:43.624Z,71.41
2018-06-29T03:40:43.593Z,71.06
2018-06-29T03:41:43.541Z,70.86
2018-06-29T03:42:43.510Z,70.87
2018-06-29T03:43:43.539Z,70.75
2018-06-29T03:44:43.527Z,70.97
2018-06-29T03:45:43.537Z,71.33
2018-06-29T03:46:43.527Z,71.39
2018-06-29T03:47:43.554Z,71.77
2018-06-29T03:48:43.509Z,71.32
2018-06-29T03:49:43.540Z,70.69
2018-06-29T03:50:43.552Z,70.65
2018-06-29T03:51:43.517Z,70.44
2018-06-29T03:52:43.526Z,71.31
2018-06-29T03:53:43.528Z,72.26
2018-06-29T03:54:43.544Z,71.71
2018-06-29T03:55:43.516Z,71.4
2018-06-29T03:56:43.554Z,71.15
2018-06-29T03:57:43.567Z,71.65
2018-06-29T03:58:43.520Z,71.09
2018-06-29T03:59:43.573Z,70.71
2018-06-29T04:00:43.595Z,70.51
2018-06-29T04:01:43.592Z,70.51
2018-06-29T04:02:43.594Z,70.5
2018-06-29T04:03:43.590Z,70.52
2018-06-29T04:04:43.814Z,70.7
2018-06-29T04:05:43.648Z,71.01
2018-06-29T04:06:44.086Z,71.24
2018-06-29T04:07:43.590Z,70.91
2018-06-29T04:08:43.846Z,70.73
2018-06-29T04:09:43.542Z,71.09
2018-06-29T04:10:43.547Z,72.13
2018-06-29T04:11:43.559Z,71.73
2018-06-29T04:12:43.532Z,72.06
2018-06-29T04:13:43.564Z,71.35
2018-06-29T04:14:43.540Z,71.41
2018-06-29T04:15:43.596Z,71.93
2018-06-29T04:16:43.558Z,72.53
2018-06-29T04:17:43.609Z,72.55
2018-06-29T04:18:43.663Z,72.79
2018-06-29T04:19:43.558Z,72.34
2018-06-29T04:20:43.540Z,72.38
2018-06-29T04:21:43.574Z,71.78
2018-06-29T04:22:43.638Z,71.32
2018-06-29T04:23:43.568Z,72.11
2018-06-29T04:24:43.675Z,72.39
2018-06-29T04:25:43.583Z,72.16
2018-06-29T04:26:43.555Z,71.66
2018-06-29T04:27:43.767Z,71.86
2018-06-29T04:28:43.629Z,71.89
2018-06-29T04:29:43.715Z,71.49
2018-06-29T04:30:43.574Z,71.5
2018-06-29T04:31:43.600Z,70.97
2018-06-29T04:32:43.716Z,71.61
2018-06-29T04:33:43.558Z,71.95
2018-06-29T04:34:43.545Z,71.48
2018-06-29T04:35:43.589Z,71.54
2018-06-29T04:36:43.589Z,71.92
2018-06-29T04:37:43.579Z,71.88
2018-06-29T04:38:43.593Z,71.5
2018-06-29T04:39:43.723Z,72.1
2018-06-29T04:40:43.585Z,72.2
2018-06-29T04:41:43.610Z,71.71
2018-06-29T04:42:43.576Z,71.75
2018-06-29T04:43:43.565Z,71.41
2018-06-29T04:44:44.221Z,71.78
2018-06-29T04:45:43.626Z,71.51
2018-06-29T04:46:43.646Z,71.83
2018-06-29T04:47:44.027Z,72.6
2018-06-29T04:48:43.693Z,73.22
2018-06-29T04:49:43.601Z,73.42
2018-06-29T04:50:43.600Z,73.28
2018-06-29T04:51:43.690Z,72.99
2018-06-29T04:52:43.632Z,73.65
2018-06-29T04:53:43.616Z,74.03
2018-06-29T04:54:43.619Z,72.77
2018-06-29T04:55:43.634Z,72.67
2018-06-29T04:56:43.637Z,72.26
2018-06-29T04:57:43.638Z,72.28
2018-06-29T04:58:43.831Z,73.42
2018-06-29T04:59:43.641Z,73.27
2018-06-29T05:00:43.649Z,72.4
2018-06-29T05:01:43.672Z,72.29
2018-06-29T05:02:43.667Z,72.53
2018-06-29T05:03:43.605Z,72.41
2018-06-29T05:04:43.612Z,72.75
2018-06-29T05:05:43.618Z,73.11
2018-06-29T05:06:43.671Z,73.7
2018-06-29T05:07:43.669Z,73.09
2018-06-29T05:08:43.637Z,73.1
2018-06-29T05:09:43.761Z,72.64
2018-06-29T05:10:43.684Z,73.3
2018-06-29T05:11:43.685Z,74.25
2018-06-29T05:12:43.653Z,73.98
2018-06-29T05:13:43.666Z,73.47
2018-06-29T05:14:43.629Z,73.64
2018-06-29T05:15:43.641Z,73.26
2018-06-29T05:16:43.658Z,73.45
2018-06-29T05:17:43.671Z,73.48
2018-06-29T05:18:43.669Z,72.74
2018-06-29T05:19:43.655Z,73.51
2018-06-29T05:20:43.660Z,72.69
2018-06-29T05:21:43.670Z,74
2018-06-29T05:22:43.676Z,73.8
2018-06-29T05:23:43.653Z,73.84
2018-06-29T05:24:43.692Z,73.15
2018-06-29T05:25:43.726Z,73.65
2018-06-29T05:26:43.687Z,72.97
2018-06-29T05:27:43.739Z,72.64
2018-06-29T05:28:43.886Z,72.65
2018-06-29T05:29:43.591Z,72.31
2018-06-29T05:30:43.756Z,73.28
2018-06-29T05:31:43.608Z,72.95
2018-06-29T05:32:43.604Z,72.73
2018-06-29T05:33:43.589Z,72.69
2018-06-29T05:34:43.778Z,72.27
2018-06-29T05:35:43.596Z,72.08
2018-06-29T05:36:43.719Z,72.04
2018-06-29T05:37:43.719Z,72.3
2018-06-29T05:38:43.607Z,72.22
2018-06-29T05:39:43.591Z,71.96
2018-06-29T05:40:43.736Z,71.74
2018-06-29T05:41:43.656Z,71.65
2018-06-29T05:42:43.609Z,71.28
2018-06-29T05:43:43.615Z,71.6
2018-06-29T05:44:43.590Z,71.68
2018-06-29T05:45:43.595Z,71.65
2018-06-29T05:46:43.612Z,71.51
2018-06-29T05:47:43.649Z,71.5
2018-06-29T05:48:43.600Z,71.52
2018-06-29T05:49:43.662Z,71.23
2018-06-29T05:50:43.808Z,71.42
2018-06-29T05:51:43.672Z,71.2
2018-06-29T05:52:43.614Z,71.25
2018-06-29T05:53:43.609Z,71.29
2018-06-29T05:54:43.626Z,71.32
2018-06-29T05:55:43.615Z,71.7
2018-06-29T05:56:43.639Z,71.7
2018-06-29T05:57:43.591Z,71.6
2018-06-29T05:58:43.591Z,71.6
2018-06-29T05:59:43.593Z,71.3
2018-06-29T06:00:43.616Z,72.07
2018-06-29T06:01:43.613Z,72.18
2018-06-29T06:02:43.602Z,71.95
2018-06-29T06:03:43.585Z,71.9
2018-06-29T06:04:43.643Z,71.82
2018-06-29T06:05:43.678Z,71.32
2018-06-29T06:06:43.600Z,70.97
2018-06-29T06:07:43.624Z,70.96
2018-06-29T06:08:43.632Z,70.81
2018-06-29T06:09:43.608Z,70.69
2018-06-29T06:10:43.622Z,70.76
2018-06-29T06:11:43.635Z,70.75
2018-06-29T06:12:43.632Z,70.92
2018-06-29T06:13:43.588Z,70.57
2018-06-29T06:14:43.593Z,70.45
2018-06-29T06:15:43.672Z,70.62
2018-06-29T06:16:43.635Z,70.96
2018-06-29T06:17:43.611Z,71.16
2018-06-29T06:18:43.628Z,70.52
2018-06-29T06:19:43.667Z,70.53
2018-06-29T06:20:43.652Z,70.47
2018-06-29T06:21:43.798Z,70.19
2018-06-29T06:22:43.646Z,70.21
2018-06-29T06:23:43.616Z,70.11
2018-06-29T06:24:43.628Z,70.4
2018-06-29T06:25:43.766Z,70.15
2018-06-29T06:26:43.640Z,69.96
2018-06-29T06:27:43.686Z,70.19
2018-06-29T06:28:43.641Z,69.9
2018-06-29T06:29:43.653Z,69.99
2018-06-29T06:30:43.767Z,69.87
2018-06-29T06:31:43.613Z,69.73
2018-06-29T06:32:43.619Z,69.62
2018-06-29T06:33:43.785Z,69.52
2018-06-29T06:34:43.648Z,69.29
2018-06-29T06:35:43.709Z,69.21
2018-06-29T06:36:43.637Z,69.12
2018-06-29T06:37:43.652Z,69.29
2018-06-29T06:38:43.700Z,69.17
2018-06-29T06:39:43.640Z,69
2018-06-29T06:40:43.664Z,69.12
2018-06-29T06:41:43.737Z,69.12
2018-06-29T06:42:43.656Z,69.27
2018-06-29T06:43:43.736Z,69.39
2018-06-29T06:44:43.676Z,69.33
2018-06-29T06:45:43.625Z,69.42
2018-06-29T06:46:43.673Z,69.14
2018-06-29T06:47:43.696Z,69.09
2018-06-29T06:48:43.673Z,69.19
2018-06-29T06:49:43.666Z,69.25
2018-06-29T06:50:43.701Z,69.46
2018-06-29T06:51:43.619Z,69.89
2018-06-29T06:52:43.669Z,70.05
2018-06-29T06:53:43.738Z,70.09
2018-06-29T06:54:43.666Z,69.79
2018-06-29T06:55:43.693Z,70.02
2018-06-29T06:56:43.649Z,70.47
2018-06-29T06:57:43.661Z,70.09
2018-06-29T06:58:43.675Z,70.2
2018-06-29T06:59:43.672Z,70.47
2018-06-29T07:00:43.772Z,70.38
2018-06-29T07:01:43.715Z,70.57
2018-06-29T07:02:43.644Z,71.59
2018-06-29T07:03:43.683Z,71.04
2018-06-29T07:04:43.716Z,71.25
2018-06-29T07:05:43.841Z,72.37
2018-06-29T07:06:43.710Z,72.6
2018-06-29T07:07:43.863Z,75.18
2018-06-29T07:08:43.675Z,73.56
2018-06-29T07:09:43.692Z,74.52
2018-06-29T07:10:43.662Z,74.33
2018-06-29T07:11:43.671Z,75.32
2018-06-29T07:12:43.734Z,75.82
2018-06-29T07:13:43.674Z,75.65
2018-06-29T07:14:43.714Z,75.94
2018-06-29T07:15:43.687Z,76.27
2018-06-29T07:16:43.687Z,76.17
2018-06-29T07:17:43.686Z,75.02
2018-06-29T07:18:43.695Z,76.29
2018-06-29T07:19:43.655Z,74.89
2018-06-29T07:20:43.653Z,74.38
2018-06-29T07:21:46.281Z,74.81
2018-06-29T07:22:43.688Z,74.32
2018-06-29T07:23:43.656Z,74.44
2018-06-29T07:24:43.650Z,74.78
2018-06-29T07:25:43.689Z,74.67
2018-06-29T07:26:43.678Z,73.84
2018-06-29T07:27:43.797Z,73.49
2018-06-29T07:28:43.746Z,72.8
2018-06-29T07:29:43.685Z,72.44
2018-06-29T07:30:43.672Z,73.15
2018-06-29T07:31:43.686Z,72.74
2018-06-29T07:32:44.003Z,73.35
2018-06-29T07:33:43.694Z,72.77
2018-06-29T07:34:43.689Z,72.43
2018-06-29T07:35:43.661Z,72.49
2018-06-29T07:36:43.693Z,72.3
2018-06-29T07:37:43.942Z,72.66
2018-06-29T07:38:43.692Z,72.36
2018-06-29T07:39:43.673Z,72.07
2018-06-29T07:40:43.746Z,73.09
2018-06-29T07:41:43.693Z,73.27
2018-06-29T07:42:44.169Z,74.79
2018-06-29T07:43:43.742Z,74.11
2018-06-29T07:44:43.709Z,74.04
2018-06-29T07:45:43.727Z,73.33
2018-06-29T07:46:43.832Z,73.49
2018-06-29T07:47:43.784Z,74.1
2018-06-29T07:48:43.789Z,73.68
2018-06-29T07:49:43.758Z,73.48
2018-06-29T07:50:43.786Z,73.6
2018-06-29T07:51:43.758Z,72.25
2018-06-29T07:52:43.852Z,71.73
2018-06-29T07:53:43.854Z,71.56
2018-06-29T07:54:44.206Z,71.4
2018-06-29T07:55:43.822Z,71.42
2018-06-29T07:56:43.952Z,71.81
2018-06-29T07:57:43.958Z,71.48
2018-06-29T07:58:44.272Z,72.06
2018-06-29T07:59:43.873Z,72.31
2018-06-29T08:00:43.786Z,71.7
2018-06-29T08:01:43.838Z,71.15
2018-06-29T08:02:44.330Z,71.53
2018-06-29T08:03:43.981Z,70.24
2018-06-29T08:04:43.922Z,70.23
2018-06-29T08:05:43.900Z,70.22
2018-06-29T08:06:44.146Z,70.76
2018-06-29T08:07:43.899Z,70.36
2018-06-29T08:08:43.923Z,69.55
2018-06-29T08:09:43.843Z,68.33
2018-06-29T08:10:44.075Z,68.81
2018-06-29T08:11:43.887Z,69.41
2018-06-29T08:12:43.882Z,69.49
2018-06-29T08:13:43.923Z,69.38
2018-06-29T08:14:43.860Z,69.88
2018-06-29T08:15:44.242Z,68.03
2018-06-29T08:16:43.876Z,67.93
2018-06-29T08:17:43.848Z,67.45
2018-06-29T08:18:43.815Z,67.24
2018-06-29T08:19:43.825Z,67.42
2018-06-29T08:20:43.858Z,67.6
2018-06-29T08:21:43.889Z,66.87
2018-06-29T08:22:43.850Z,66.58
2018-06-29T08:23:43.862Z,66.82
2018-06-29T08:24:43.831Z,66.43
2018-06-29T08:25:43.852Z,66.32
2018-06-29T08:26:43.840Z,66.31
2018-06-29T08:27:43.858Z,66.74
2018-06-29T08:28:43.854Z,66.25
2018-06-29T08:29:43.840Z,66.43
2018-06-29T08:30:43.890Z,66.97
2018-06-29T08:31:43.899Z,66.43
2018-06-29T08:32:43.864Z,66.1
2018-06-29T08:33:43.873Z,66.17
2018-06-29T08:34:43.894Z,65.59
2018-06-29T08:35:43.719Z,65.59
2018-06-29T08:36:43.719Z,65.38
2018-06-29T08:37:43.722Z,65.62
2018-06-29T08:38:44.056Z,65.56
2018-06-29T08:39:44.447Z,66.07
2018-06-29T08:40:43.689Z,65.02
2018-06-29T08:41:43.919Z,65.23
2018-06-29T08:42:43.728Z,65.33
2018-06-29T08:43:43.933Z,65.6
2018-06-29T08:44:43.904Z,65.83
2018-06-29T08:45:43.738Z,65.12
2018-06-29T08:46:43.736Z,64.99
2018-06-29T08:47:43.759Z,64.06
2018-06-29T08:48:43.720Z,64.45
2018-06-29T08:49:43.851Z,64.58
2018-06-29T08:50:43.732Z,63.94
2018-06-29T08:51:44.077Z,64.15
2018-06-29T08:52:43.732Z,63.51
2018-06-29T08:53:43.742Z,63.71
2018-06-29T08:54:43.750Z,63.66
2018-06-29T08:55:43.976Z,63.29
2018-06-29T08:56:43.978Z,63.62
2018-06-29T08:57:43.713Z,63.09
2018-06-29T08:58:43.827Z,62.9
2018-06-29T08:59:43.787Z,63.37
2018-06-29T09:00:43.775Z,62.69
2018-06-29T09:01:43.719Z,62.69
2018-06-29T09:02:44.121Z,62.65
2018-06-29T09:03:43.719Z,63.03
2018-06-29T09:04:43.835Z,62.45
2018-06-29T09:05:43.730Z,61.06
2018-06-29T09:06:43.769Z,60.1
2018-06-29T09:07:43.756Z,60.79
2018-06-29T09:08:44.161Z,60.88
2018-06-29T09:09:43.879Z,60.66
2018-06-29T09:10:43.744Z,60.6
2018-06-29T09:11:43.751Z,60.66
2018-06-29T09:12:43.803Z,61.27
2018-06-29T09:13:43.773Z,61.71
2018-06-29T09:14:47.571Z,61.78
2018-06-29T09:15:43.896Z,61.38
2018-06-29T09:16:43.890Z,60.47
2018-06-29T09:17:44.216Z,59.79
2018-06-29T09:18:43.735Z,59.81
2018-06-29T09:19:43.753Z,60.28
2018-06-29T09:20:43.740Z,60.49
2018-06-29T09:21:44.137Z,60.41
2018-06-29T09:22:44.115Z,59.92
2018-06-29T09:23:43.857Z,60.05
2018-06-29T09:24:43.963Z,60.2
2018-06-29T09:25:43.859Z,58.89
2018-06-29T09:26:43.868Z,58.79
2018-06-29T09:27:43.874Z,58.4
2018-06-29T09:28:43.908Z,58.85
2018-06-29T09:29:43.996Z,58.21
2018-06-29T09:30:48.612Z,57.55
2018-06-29T09:31:44.010Z,58.02
2018-06-29T09:32:43.830Z,58.76
2018-06-29T09:33:43.769Z,59.18
2018-06-29T09:34:43.939Z,58.56
2018-06-29T09:35:43.812Z,58.87
2018-06-29T09:36:43.827Z,58.06
2018-06-29T09:37:43.769Z,58.1
2018-06-29T09:38:43.847Z,58.29
2018-06-29T09:39:43.876Z,57.74
2018-06-29T09:40:43.979Z,57.24
2018-06-29T09:41:44.009Z,57.48
2018-06-29T09:42:43.876Z,56.98
2018-06-29T09:43:43.886Z,57.18
2018-06-29T09:44:43.813Z,57.43
2018-06-29T09:45:43.896Z,57.77
2018-06-29T09:46:43.799Z,56.59
2018-06-29T09:47:43.968Z,56.99
2018-06-29T09:48:44.129Z,55.61
2018-06-29T09:49:44.036Z,55.59
2018-06-29T09:50:43.751Z,55.71
2018-06-29T09:51:43.940Z,56.07
2018-06-29T09:52:43.939Z,54.56
2018-06-29T09:53:43.954Z,53.64
2018-06-29T09:54:43.857Z,54.11
2018-06-29T09:55:44.070Z,54.34
2018-06-29T09:56:43.817Z,54.06
2018-06-29T09:57:43.799Z,54.49
2018-06-29T09:58:43.901Z,55.09
2018-06-29T09:59:44.027Z,54.91
2018-06-29T10:00:44.002Z,54.08
2018-06-29T10:01:43.794Z,53.84
2018-06-29T10:02:43.776Z,53.5
2018-06-29T10:03:43.962Z,53.72
2018-06-29T10:04:43.789Z,54.42
2018-06-29T10:05:43.792Z,53.99
2018-06-29T10:06:43.919Z,54.2
2018-06-29T10:07:43.855Z,53.78
2018-06-29T10:08:43.782Z,53.36
2018-06-29T10:09:43.867Z,53.34
2018-06-29T10:10:44.074Z,53.55
2018-06-29T10:11:43.894Z,54.18
2018-06-29T10:12:44.094Z,53.95
2018-06-29T10:13:45.123Z,54.38
2018-06-29T10:14:43.911Z,54.23
2018-06-29T10:15:43.914Z,54.14
2018-06-29T10:16:44.000Z,53.68
2018-06-29T10:17:43.793Z,53.89
2018-06-29T10:18:43.886Z,53.86
2018-06-29T10:19:44.084Z,54.14
2018-06-29T10:20:43.841Z,53.8
2018-06-29T10:21:43.833Z,52.79
2018-06-29T10:22:43.876Z,51.92
2018-06-29T10:23:43.989Z,52.3
2018-06-29T10:24:43.808Z,51.59
2018-06-29T10:25:43.948Z,51.5
2018-06-29T10:26:43.961Z,51.26
2018-06-29T10:27:44.090Z,50.88
2018-06-29T10:28:43.873Z,50.9
2018-06-29T10:29:43.906Z,51.12
2018-06-29T10:30:43.942Z,50.87
2018-06-29T10:31:43.812Z,51.39
2018-06-29T10:32:43.826Z,51.59
2018-06-29T10:33:43.790Z,51.79
2018-06-29T10:34:43.799Z,51.36
2018-06-29T10:35:43.895Z,51.54
2018-06-29T10:36:43.905Z,50.97
2018-06-29T10:37:43.857Z,51.17
2018-06-29T10:38:43.898Z,51.59
2018-06-29T10:39:48.075Z,51.35
2018-06-29T10:40:43.824Z,51.52
2018-06-29T10:41:43.830Z,51.85
2018-06-29T10:42:43.998Z,51.57
2018-06-29T10:43:43.827Z,50.37
2018-06-29T10:44:43.895Z,51.37
2018-06-29T10:45:44.029Z,51.23
2018-06-29T10:46:43.847Z,51.62
2018-06-29T10:47:43.836Z,51.76
2018-06-29T10:48:43.941Z,52.26
2018-06-29T10:49:43.830Z,52.19
2018-06-29T10:50:43.877Z,51.8
2018-06-29T10:51:43.815Z,51.65
2018-06-29T10:52:43.874Z,51.27
2018-06-29T10:53:43.819Z,51.14
2018-06-29T10:54:43.813Z,50.6
2018-06-29T10:55:43.920Z,50.42
2018-06-29T10:56:44.019Z,49.77
2018-06-29T10:57:43.993Z,49.38
2018-06-29T10:58:44.000Z,49.38
2018-06-29T10:59:43.933Z,50.33
2018-06-29T11:00:44.018Z,50.98
2018-06-29T11:01:43.832Z,50.79
2018-06-29T11:02:43.906Z,51.3
2018-06-29T11:03:43.842Z,49.72
2018-06-29T11:04:43.925Z,49.78
2018-06-29T11:05:43.935Z,50.11
2018-06-29T11:06:43.870Z,49.91
2018-06-29T11:07:43.864Z,49.76
2018-06-29T11:08:43.937Z,48.96
2018-06-29T11:09:43.872Z,49.02
2018-06-29T11:10:43.910Z,49.21
2018-06-29T11:11:43.827Z,49.03
2018-06-29T11:12:44.127Z,48.83
2018-06-29T11:13:44.015Z,48.52
2018-06-29T11:14:43.922Z,48.19
2018-06-29T11:15:43.949Z,48.21
2018-06-29T11:16:43.937Z,46.84
2018-06-29T11:17:43.867Z,47.54
2018-06-29T11:18:43.859Z,48.48
2018-06-29T11:19:43.944Z,47.59
2018-06-29T11:20:43.966Z,46.92
2018-06-29T11:21:44.065Z,46.45
2018-06-29T11:22:44.204Z,45.48
2018-06-29T11:23:43.870Z,45.96
2018-06-29T11:24:43.932Z,45.89
2018-06-29T11:25:43.890Z,45.66
2018-06-29T11:26:43.854Z,45.36
2018-06-29T11:27:43.998Z,44.88
2018-06-29T11:28:44.029Z,45.23
2018-06-29T11:29:43.923Z,44.53
2018-06-29T11:30:44.133Z,45.71
2018-06-29T11:31:43.876Z,45.46
2018-06-29T11:32:43.997Z,45.85
2018-06-29T11:33:43.930Z,45.91
2018-06-29T11:34:43.894Z,45.85
2018-06-29T11:35:43.958Z,45.37
2018-06-29T11:36:43.926Z,45.01
2018-06-29T11:37:43.917Z,45.05
2018-06-29T11:38:43.881Z,45.33
2018-06-29T11:39:44.092Z,45.38
2018-06-29T11:40:43.855Z,45.25
2018-06-29T11:41:44.031Z,45.05
2018-06-29T11:42:44.013Z,45.06
2018-06-29T11:43:43.966Z,44.76
2018-06-29T11:44:43.940Z,44.57
2018-06-29T11:45:43.850Z,44.21
2018-06-29T11:46:43.903Z,44.3
2018-06-29T11:47:49.462Z,43.79
2018-06-29T11:48:43.935Z,44.03
2018-06-29T11:49:43.876Z,45.16
2018-06-29T11:50:43.894Z,43.78
2018-06-29T11:51:43.879Z,44.13
2018-06-29T11:52:43.885Z,44.51
2018-06-29T11:53:43.880Z,44.81
2018-06-29T11:54:43.854Z,44.96
2018-06-29T11:55:43.998Z,45.19
2018-06-29T11:56:43.917Z,45.46
2018-06-29T11:57:43.871Z,44.65
2018-06-29T11:58:43.902Z,44.84
2018-06-29T11:59:43.878Z,45.65
2018-06-29T12:00:43.915Z,45.16
2018-06-29T12:01:43.882Z,44.95
2018-06-29T12:02:43.898Z,45.12
2018-06-29T12:03:43.919Z,45.66
2018-06-29T12:04:43.877Z,44.91
2018-06-29T12:05:43.915Z,45.31
2018-06-29T12:06:43.927Z,45.79
2018-06-29T12:07:43.964Z,45.3
2018-06-29T12:08:43.895Z,44.46
2018-06-29T12:09:43.911Z,44.89
2018-06-29T12:10:43.952Z,45.36
2018-06-29T12:11:44.129Z,44.67
2018-06-29T12:12:44.012Z,45.03
2018-06-29T12:13:43.914Z,45.3
2018-06-29T12:14:43.954Z,44.79
2018-06-29T12:15:44.000Z,44.48
2018-06-29T12:16:43.878Z,44.84
2018-06-29T12:17:43.976Z,44.49
2018-06-29T12:18:43.902Z,43.98
2018-06-29T12:19:43.970Z,44.09
2018-06-29T12:20:44.197Z,43.73
2018-06-29T12:21:43.899Z,43.62
2018-06-29T12:22:43.897Z,43.46
2018-06-29T12:23:43.929Z,43.36
2018-06-29T12:24:43.910Z,43.46
2018-06-29T12:25:44.026Z,42.96
2018-06-29T12:26:44.153Z,43.4
2018-06-29T12:27:43.920Z,43.24
2018-06-29T12:28:43.906Z,43.32
2018-06-29T12:29:43.932Z,43.11
2018-06-29T12:30:44.253Z,42.44
2018-06-29T12:31:43.925Z,42.73
2018-06-29T12:32:43.891Z,43.01
2018-06-29T12:33:43.888Z,42.31
2018-06-29T12:34:43.909Z,41.93
2018-06-29T12:35:43.900Z,41.99
2018-06-29T12:36:44.080Z,41.84
2018-06-29T12:37:43.920Z,42.48
2018-06-29T12:38:43.895Z,42.77
2018-06-29T12:39:44.101Z,42.73
2018-06-29T12:40:44.030Z,42.38
2018-06-29T12:41:43.932Z,42.13
2018-06-29T12:42:43.920Z,42.65
2018-06-29T12:43:43.909Z,42.07
2018-06-29T12:44:43.935Z,42.41
2018-06-29T12:45:43.900Z,42.73
2018-06-29T12:46:44.048Z,42.31
2018-06-29T12:47:44.034Z,42.46
2018-06-29T12:48:43.956Z,41.8
2018-06-29T12:49:43.980Z,42.1
2018-06-29T12:50:43.943Z,41.25
2018-06-29T12:51:44.081Z,41.41
2018-06-29T12:52:44.113Z,41.05
2018-06-29T12:53:43.915Z,41.62
2018-06-29T12:54:44.102Z,41.36
2018-06-29T12:55:44.040Z,41.68